Minerva Astra — 9HDW7 — position and weather

sailwx.info

Track history (hours):
 
Tides and Currents Weather Stations Pressure Air Temp Water Temp Dewpoint Dewpoint Depression Visibility Wind Speed Wind Dir Waves Ship Positions

Minerva Astra

Last reported at 2016-Apr-23 11:22 UTC. Time now 2016-Apr-30 18:51 UTC.
Position N 35°18' E 014°51'.

Length 248 m; draft 8.5 m.

Type: Tanker. MMSI: 256703000.

Date/timePositionNaut miles runAvg speedWind from/ knotsBaromVisibWave heightAir tempDewpointWater temp
2016-Apr-23 11:22N 35°18' E 014°51'1111.7
2016-Apr-23 10:24N 35°25' E 014°40'911.1
2016-Apr-23 09:33N 35°31' E 014°31'1110.7
2016-Apr-23 08:33N 35°37' E 014°20'1110.9
2016-Apr-23 07:33N 35°43' E 014°09'1110.9
2016-Apr-23 06:33N 35°50' E 013°58'1110.8
2016-Apr-23 05:33N 35°56' E 013°48'1110.6
2016-Apr-23 04:34N 36°03' E 013°37'1110.8
2016-Apr-23 03:34N 36°09' E 013°26'1111.1
2016-Apr-23 02:33N 36°15' E 013°15'1111.1
2016-Apr-23 01:33N 36°22' E 013°04'3310.4
2016-Apr-22 22:23N 36°42' E 012°31'1110.4
2016-Apr-22 21:17N 36°48' E 012°20'810.4
2016-Apr-22 20:33N 36°53' E 012°12'1310.3
2016-Apr-22 19:15N 37°01' E 011°59'710.2
2016-Apr-22 18:33N 37°04' E 011°51'1110.0
2016-Apr-22 17:26N 37°10' E 011°39'1010.2
2016-Apr-22 16:29N 37°15' E 011°28'  
2016-Apr-19 17:34N 36°01' W 005°16'1211.7
2016-Apr-19 16:34N 35°57' W 005°29'1613.1
2016-Apr-19 15:19N 35°55' W 005°49'213 9.8
2016-Apr-18 17:34N 37°32' W 009°46'10 9.6
2016-Apr-18 16:34N 37°42' W 009°49'10 9.5
2016-Apr-18 15:33N 37°51' W 009°52'9 9.5
2016-Apr-18 14:33N 38°00' W 009°54'10 9.6
2016-Apr-18 13:33N 38°10' W 009°57'1211.9
2016-Apr-18 12:33N 38°21' W 010°00'1212.0
2016-Apr-18 11:33N 38°33' W 010°03'1111.3
2016-Apr-18 10:33N 38°44' W 010°06'1111.4
2016-Apr-18 09:33N 38°55' W 010°05'1211.9
2016-Apr-18 08:34N 39°07' W 010°00'1212.2
2016-Apr-18 07:33N 39°18' W 009°54'1312.4
2016-Apr-18 06:30N 39°30' W 009°48'1412.4
2016-Apr-18 05:22N 39°43' W 009°42'  
Track history (hours):
 
Tides and Currents Weather Stations Pressure Air Temp Water Temp Dewpoint Dewpoint Depression Visibility Wind Speed Wind Dir Waves Ship Positions

Minerva Astra

Last reported at 2016-Apr-23 11:22 UTC. Time now 2016-Apr-30 18:51 UTC.
Position N 35°18' E 014°51'.

Length 248 m; draft 8.5 m.

Type: Tanker. MMSI: 256703000.

Date/timePositionNaut miles runAvg speedWind from/ knotsBaromVisibWave heightAir tempDewpointWater temp
2016-Apr-23 11:22N 35°18' E 014°51'1111.7
2016-Apr-23 10:24N 35°25' E 014°40'911.1
2016-Apr-23 09:33N 35°31' E 014°31'1110.7
2016-Apr-23 08:33N 35°37' E 014°20'1110.9
2016-Apr-23 07:33N 35°43' E 014°09'1110.9
2016-Apr-23 06:33N 35°50' E 013°58'1110.8
2016-Apr-23 05:33N 35°56' E 013°48'1110.6
2016-Apr-23 04:34N 36°03' E 013°37'1110.8
2016-Apr-23 03:34N 36°09' E 013°26'1111.1
2016-Apr-23 02:33N 36°15' E 013°15'1111.1
2016-Apr-23 01:33N 36°22' E 013°04'3310.4
2016-Apr-22 22:23N 36°42' E 012°31'1110.4
2016-Apr-22 21:17N 36°48' E 012°20'810.4
2016-Apr-22 20:33N 36°53' E 012°12'1310.3
2016-Apr-22 19:15N 37°01' E 011°59'710.2
2016-Apr-22 18:33N 37°04' E 011°51'1110.0
2016-Apr-22 17:26N 37°10' E 011°39'1010.2
2016-Apr-22 16:29N 37°15' E 011°28'  
2016-Apr-19 17:34N 36°01' W 005°16'1211.7
2016-Apr-19 16:34N 35°57' W 005°29'1613.1
2016-Apr-19 15:19N 35°55' W 005°49'213 9.8
2016-Apr-18 17:34N 37°32' W 009°46'10 9.6
2016-Apr-18 16:34N 37°42' W 009°49'10 9.5
2016-Apr-18 15:33N 37°51' W 009°52'9 9.5
2016-Apr-18 14:33N 38°00' W 009°54'10 9.6
2016-Apr-18 13:33N 38°10' W 009°57'1211.9
2016-Apr-18 12:33N 38°21' W 010°00'1212.0
2016-Apr-18 11:33N 38°33' W 010°03'1111.3
2016-Apr-18 10:33N 38°44' W 010°06'1111.4
2016-Apr-18 09:33N 38°55' W 010°05'1211.9
2016-Apr-18 08:34N 39°07' W 010°00'1212.2
2016-Apr-18 07:33N 39°18' W 009°54'1312.4
2016-Apr-18 06:30N 39°30' W 009°48'1412.4
2016-Apr-18 05:22N 39°43' W 009°42'  

Dump ship's entire track history